Time;durP1;ratioP1;P1;durP2;ratioP2;P2;SDS_P1;SDS_P2;PMS_P1;PMS_P2;Temp;Humidity;BMP_temperature;BMP_pressure;BME280_temperature;BME280_humidity;BME280_pressure;Samples;Min_cycle;Max_cycle;Signal;HPM_P1;HPM_P2
2022/09/08 00:01:44;;;;;;;5.57;1.40;;;20.90;99.90;;;;;;5015319;28;20311;-81
2022/09/08 00:04:10;;;;;;;6.88;0.98;;;20.90;99.90;;;;;;5014903;28;20629;-80
2022/09/08 00:06:36;;;;;;;5.55;1.60;;;20.70;99.90;;;;;;5014572;28;20242;-80
2022/09/08 00:09:02;;;;;;;3.30;1.02;;;20.70;99.90;;;;;;5014257;28;20239;-80
2022/09/08 00:11:30;;;;;;;1.35;0.80;;;20.60;99.90;;;;;;5013414;28;20252;-79
2022/09/08 00:14:04;;;;;;;1.42;0.90;;;20.60;99.90;;;;;;5014680;28;20551;-80
2022/09/08 00:16:30;;;;;;;7.72;1.50;;;20.60;99.90;;;;;;5013407;28;20523;-79
2022/09/08 00:18:55;;;;;;;4.80;0.85;;;20.80;99.90;;;;;;5014119;28;20164;-79
2022/09/08 00:21:23;;;;;;;4.75;1.30;;;20.70;99.90;;;;;;5014506;28;20176;-79
2022/09/08 00:23:49;;;;;;;3.28;1.60;;;20.50;99.90;;;;;;5014249;28;20242;-79
2022/09/08 00:26:16;;;;;;;3.20;1.13;;;20.20;99.90;;;;;;5014125;28;20172;-79
2022/09/08 00:28:41;;;;;;;2.30;0.82;;;20.00;99.90;;;;;;5013966;28;20204;-79
2022/09/08 00:31:07;;;;;;;2.35;0.93;;;20.00;99.90;;;;;;5013465;28;20173;-79
2022/09/08 00:33:33;;;;;;;1.90;0.95;;;19.80;99.90;;;;;;5014087;28;20609;-79
2022/09/08 00:35:59;;;;;;;3.03;1.00;;;19.80;99.90;;;;;;5014543;28;20193;-79
2022/09/08 00:38:26;;;;;;;1.80;1.10;;;19.60;99.90;;;;;;5014054;28;20203;-79
2022/09/08 00:40:52;;;;;;;3.67;0.95;;;19.60;99.90;;;;;;5014225;28;20165;-79
2022/09/08 00:43:39;;;;;;;1.17;0.80;;;19.50;99.90;;;;;;5014088;28;20644;-79
2022/09/08 00:46:14;;;;;;;2.85;1.05;;;19.60;99.90;;;;;;5012475;28;20188;-79
2022/09/08 00:48:48;;;;;;;7.10;1.13;;;19.60;99.90;;;;;;5012535;28;20212;-79
2022/09/08 00:51:16;;;;;;;6.68;1.20;;;19.50;99.90;;;;;;5013831;28;20252;-79
2022/09/08 00:53:43;;;;;;;0.63;0.63;;;19.50;99.90;;;;;;5013542;28;20220;-79
2022/09/08 00:56:09;;;;;;;1.33;0.65;;;19.50;99.90;;;;;;5012413;28;20587;-79
2022/09/08 00:58:37;;;;;;;4.10;0.90;;;19.40;99.90;;;;;;5013979;28;20171;-81
2022/09/08 01:01:05;;;;;;;3.65;1.17;;;19.60;99.90;;;;;;5012395;28;20211;-79
2022/09/08 01:03:31;;;;;;;3.40;0.90;;;19.80;99.90;;;;;;5013766;28;20529;-90
2022/09/08 01:14:59;;;;;;;7.40;0.82;;;19.90;99.90;;;;;;5013237;28;20184;-80
2022/09/08 01:17:28;;;;;;;1.23;0.80;;;19.80;99.90;;;;;;5013316;28;20172;-79
2022/09/08 01:19:55;;;;;;;3.63;0.98;;;19.80;99.90;;;;;;5013495;28;20247;-80
2022/09/08 01:22:49;;;;;;;2.20;1.08;;;19.80;99.90;;;;;;5013379;28;20179;-80
2022/09/08 01:25:18;;;;;;;2.00;0.80;;;19.90;99.90;;;;;;5007918;28;20644;-82
2022/09/08 01:27:48;;;;;;;3.47;1.08;;;19.90;99.90;;;;;;5013637;28;21075;-80
2022/09/08 01:30:14;;;;;;;3.53;1.00;;;20.00;99.90;;;;;;5012575;28;20173;-80
2022/09/08 01:32:43;;;;;;;3.78;0.88;;;19.90;99.90;;;;;;5011754;28;20563;-81
2022/09/08 01:35:08;;;;;;;6.35;0.93;;;19.90;99.90;;;;;;5013185;28;20161;-79
2022/09/08 01:37:34;;;;;;;6.30;2.05;;;19.80;99.90;;;;;;5013413;28;20703;-87
2022/09/08 01:40:00;;;;;;;3.50;1.10;;;19.60;99.90;;;;;;5013283;28;20505;-80
2022/09/08 01:42:25;;;;;;;5.93;1.40;;;19.60;99.90;;;;;;5012867;28;20192;-80
2022/09/08 01:44:51;;;;;;;4.82;1.55;;;19.80;99.90;;;;;;5011718;28;20172;-80
2022/09/08 01:47:16;;;;;;;4.68;1.35;;;19.80;99.90;;;;;;5012027;28;20656;-79
2022/09/08 01:49:42;;;;;;;7.15;1.83;;;19.70;99.90;;;;;;5013168;28;20180;-80
2022/09/08 01:52:08;;;;;;;3.97;1.52;;;19.60;99.90;;;;;;5013970;28;20168;-81
2022/09/08 01:54:34;;;;;;;3.35;1.60;;;19.60;99.90;;;;;;5013144;28;20640;-85
2022/09/08 01:57:00;;;;;;;2.47;1.65;;;19.50;99.90;;;;;;5012808;28;20184;-80
2022/09/08 01:59:26;;;;;;;2.95;1.80;;;19.60;99.90;;;;;;5012983;28;20176;-79
2022/09/08 02:01:52;;;;;;;4.75;1.95;;;19.50;99.90;;;;;;5012811;28;20157;-79
2022/09/08 02:04:18;;;;;;;4.85;2.03;;;19.40;99.90;;;;;;5012704;28;20192;-79
2022/09/08 02:06:45;;;;;;;3.63;2.20;;;19.40;99.90;;;;;;5012108;28;20195;-79
2022/09/08 02:09:11;;;;;;;5.30;2.10;;;19.50;99.90;;;;;;5012882;28;20179;-80
2022/09/08 02:11:37;;;;;;;7.78;2.30;;;19.40;99.90;;;;;;5012805;28;20171;-79
2022/09/08 02:14:03;;;;;;;3.25;2.00;;;19.30;99.90;;;;;;5012783;28;20193;-78
2022/09/08 02:16:29;;;;;;;3.35;1.80;;;19.40;99.90;;;;;;5012568;28;20524;-79
2022/09/08 02:18:56;;;;;;;4.18;1.80;;;19.50;99.90;;;;;;5012538;28;20223;-81
2022/09/08 02:21:24;;;;;;;4.10;2.72;;;19.60;99.90;;;;;;5012670;28;20191;-82
2022/09/08 02:23:50;;;;;;;8.80;2.88;;;19.50;99.90;;;;;;5012572;28;20177;-81
2022/09/08 02:26:24;;;;;;;3.97;2.40;;;19.50;99.90;;;;;;5012802;28;20572;-79
2022/09/08 02:28:52;;;;;;;7.20;2.45;;;19.60;99.90;;;;;;5011645;28;20208;-79
2022/09/08 02:31:17;;;;;;;4.85;2.35;;;19.60;99.90;;;;;;5012653;28;20165;-82
2022/09/08 02:33:43;;;;;;;5.50;2.28;;;19.50;99.90;;;;;;5012094;28;20190;-79
2022/09/08 02:36:09;;;;;;;6.65;2.45;;;19.30;99.90;;;;;;5012268;28;20164;-79
2022/09/08 02:38:36;;;;;;;7.40;2.88;;;19.20;99.90;;;;;;5012149;28;20164;-80
2022/09/08 02:41:01;;;;;;;3.95;2.67;;;19.00;99.90;;;;;;5012361;28;20655;-79
2022/09/08 02:43:29;;;;;;;8.20;2.95;;;19.00;99.90;;;;;;5012508;28;20189;-79
2022/09/08 02:45:55;;;;;;;11.30;2.88;;;19.10;99.90;;;;;;5012927;28;20502;-79
2022/09/08 02:48:21;;;;;;;3.03;2.15;;;19.20;99.90;;;;;;5012680;28;20208;-79
2022/09/08 02:50:47;;;;;;;5.38;2.38;;;19.20;99.90;;;;;;5012525;28;20520;-81
2022/09/08 02:53:12;;;;;;;5.88;2.60;;;19.30;99.90;;;;;;5012460;28;20198;-79
2022/09/08 02:55:42;;;;;;;10.85;3.30;;;19.40;99.90;;;;;;5016347;28;20176;-81
2022/09/08 02:58:09;;;;;;;3.35;2.60;;;19.20;99.90;;;;;;5015417;28;20690;-80
2022/09/08 03:00:37;;;;;;;7.85;2.58;;;19.20;99.90;;;;;;5016056;28;20168;-79
2022/09/08 03:03:03;;;;;;;5.35;2.95;;;19.10;99.90;;;;;;5015881;28;20603;-82
2022/09/08 03:05:30;;;;;;;7.50;3.30;;;19.10;99.90;;;;;;5014498;28;20168;-79
2022/09/08 03:07:56;;;;;;;6.18;2.90;;;19.10;99.90;;;;;;5016173;28;20616;-79
2022/09/08 03:10:23;;;;;;;5.47;3.58;;;18.70;99.90;;;;;;5015847;28;20172;-80
2022/09/08 03:12:50;;;;;;;5.53;3.45;;;18.90;99.90;;;;;;5015593;28;20212;-79
2022/09/08 03:15:16;;;;;;;12.13;3.15;;;18.90;99.90;;;;;;5014530;28;20534;-88
2022/09/08 03:17:42;;;;;;;3.95;2.58;;;18.90;99.90;;;;;;5014528;28;20180;-79
2022/09/08 03:20:08;;;;;;;7.15;3.60;;;19.00;99.90;;;;;;5015866;28;20179;-80
2022/09/08 03:22:34;;;;;;;4.25;3.25;;;19.10;99.90;;;;;;5015694;28;20181;-81
2022/09/08 03:25:00;;;;;;;10.57;2.80;;;19.10;99.90;;;;;;5014041;28;20255;-80
2022/09/08 03:27:27;;;;;;;7.70;3.35;;;19.10;99.90;;;;;;5015579;28;20676;-80
2022/09/08 03:29:53;;;;;;;4.80;2.65;;;18.90;99.90;;;;;;5015482;28;20176;-80
2022/09/08 03:32:18;;;;;;;5.30;2.97;;;19.00;99.90;;;;;;5015659;28;20191;-80
2022/09/08 03:34:44;;;;;;;3.47;2.20;;;18.90;99.90;;;;;;5015579;28;20173;-80
2022/09/08 03:37:09;;;;;;;7.10;3.00;;;18.80;99.90;;;;;;5015015;28;20175;-80
2022/09/08 03:39:35;;;;;;;4.60;2.67;;;18.90;99.90;;;;;;5014985;28;20720;-80
2022/09/08 03:42:02;;;;;;;7.65;2.95;;;18.90;99.90;;;;;;5015412;28;20186;-80
2022/09/08 03:44:27;;;;;;;4.38;3.00;;;19.00;99.90;;;;;;5015495;28;20505;-80
2022/09/08 03:46:53;;;;;;;6.57;2.80;;;18.90;99.90;;;;;;5013838;28;20176;-79
2022/09/08 03:49:19;;;;;;;7.78;2.55;;;19.00;99.90;;;;;;5014874;28;20177;-84
2022/09/08 03:51:45;;;;;;;3.80;2.88;;;19.10;99.90;;;;;;5015121;28;20179;-79
2022/09/08 03:56:54;;;;;;;9.00;3.30;;;19.00;99.90;;;;;;5015562;28;20195;-79
2022/09/08 03:59:20;;;;;;;4.85;3.05;;;18.80;99.90;;;;;;5013703;28;20168;-80
2022/09/08 04:01:45;;;;;;;3.83;2.83;;;18.80;99.90;;;;;;5014657;28;20396;-79
2022/09/08 04:04:11;;;;;;;7.85;2.92;;;18.80;99.90;;;;;;5015006;28;20208;-80
2022/09/08 04:06:37;;;;;;;7.20;3.15;;;18.80;99.90;;;;;;5014564;28;20156;-79
2022/09/08 04:09:03;;;;;;;5.90;3.03;;;18.90;99.90;;;;;;5014779;28;20676;-80
2022/09/08 04:11:29;;;;;;;3.33;2.65;;;18.90;99.90;;;;;;5014547;28;20565;-80
2022/09/08 04:13:55;;;;;;;6.43;2.85;;;18.80;99.90;;;;;;5014240;28;20279;-80
2022/09/08 04:16:21;;;;;;;8.35;2.90;;;18.70;99.90;;;;;;5014688;28;20255;-80
2022/09/08 04:18:47;;;;;;;3.90;2.55;;;18.70;99.90;;;;;;5014279;28;20215;-81
2022/09/08 04:21:12;;;;;;;7.88;2.85;;;18.60;99.90;;;;;;5014674;28;20164;-80
2022/09/08 04:23:38;;;;;;;9.18;3.17;;;18.50;99.90;;;;;;5014387;28;20185;-81
2022/09/08 04:26:07;;;;;;;4.90;3.72;;;18.60;99.90;;;;;;5014552;28;20218;-80
2022/09/08 04:28:34;;;;;;;3.28;2.63;;;18.70;99.90;;;;;;5014545;28;20631;-80
2022/09/08 04:31:03;;;;;;;4.10;2.50;;;18.70;99.90;;;;;;5015105;28;20214;-80
2022/09/08 04:33:30;;;;;;;5.15;2.75;;;18.60;99.90;;;;;;5014791;28;20188;-79
2022/09/08 04:35:56;;;;;;;3.70;2.33;;;18.80;99.90;;;;;;5014656;28;20180;-80
2022/09/08 04:38:21;;;;;;;5.45;2.25;;;18.70;99.90;;;;;;5014100;28;20298;-80
2022/09/08 04:40:47;;;;;;;9.85;2.65;;;18.60;99.90;;;;;;5012967;28;20529;-80
2022/09/08 04:43:12;;;;;;;7.65;2.10;;;18.40;99.90;;;;;;5014080;28;20203;-81
2022/09/08 04:45:38;;;;;;;4.20;2.35;;;18.30;99.90;;;;;;5014140;28;20565;-80
2022/09/08 04:48:03;;;;;;;9.73;3.13;;;18.30;99.90;;;;;;5014079;28;20208;-80
2022/09/08 04:50:29;;;;;;;10.15;2.70;;;18.30;99.90;;;;;;5013768;28;20168;-82
2022/09/08 04:52:55;;;;;;;4.40;2.35;;;18.30;99.90;;;;;;5014149;28;20723;-79
2022/09/08 04:55:20;;;;;;;4.78;2.13;;;18.10;99.90;;;;;;5014201;28;20196;-80
2022/09/08 04:57:46;;;;;;;5.95;2.63;;;18.20;99.90;;;;;;5012587;28;20192;-79
2022/09/08 05:00:13;;;;;;;9.32;2.80;;;18.30;99.90;;;;;;5013942;28;20215;-80
2022/09/08 05:02:39;;;;;;;14.25;3.00;;;18.40;99.90;;;;;;5013882;28;20192;-80
2022/09/08 05:05:06;;;;;;;10.13;3.28;;;18.40;99.90;;;;;;5012887;28;20200;-79
2022/09/08 05:07:31;;;;;;;8.13;3.40;;;18.40;99.90;;;;;;5014275;28;20196;-79
2022/09/08 05:09:57;;;;;;;11.98;3.92;;;18.50;99.90;;;;;;5013856;28;20173;-80
2022/09/08 05:12:23;;;;;;;7.38;3.22;;;18.40;99.90;;;;;;5013681;28;20181;-80
2022/09/08 05:14:49;;;;;;;6.30;3.72;;;18.20;99.90;;;;;;5013777;28;20690;-80
2022/09/08 05:17:14;;;;;;;10.68;4.40;;;18.10;99.90;;;;;;5013296;28;20731;-80
2022/09/08 05:19:40;;;;;;;8.55;3.95;;;17.90;99.90;;;;;;5012634;28;20678;-80
2022/09/08 05:22:05;;;;;;;9.13;5.45;;;18.00;99.90;;;;;;5012184;28;20176;-79
2022/09/08 05:24:31;;;;;;;8.98;5.43;;;18.00;99.90;;;;;;5013524;28;20200;-80
2022/09/08 05:26:57;;;;;;;13.30;6.13;;;17.70;99.90;;;;;;5013539;28;20160;-80
2022/09/08 05:29:22;;;;;;;14.15;6.97;;;17.70;99.90;;;;;;5013630;28;20234;-80
2022/09/08 05:31:48;;;;;;;8.73;6.68;;;17.70;99.90;;;;;;5015887;28;20164;-79
2022/09/08 05:34:14;;;;;;;11.95;6.43;;;17.80;99.90;;;;;;5013915;28;20301;-79
2022/09/08 05:36:40;;;;;;;8.52;5.80;;;17.80;99.90;;;;;;5012100;28;20255;-79
2022/09/08 05:39:06;;;;;;;10.60;6.25;;;17.80;99.90;;;;;;5013102;28;20168;-80
2022/09/08 05:41:33;;;;;;;11.80;6.70;;;17.80;99.90;;;;;;5012807;28;20173;-81
2022/09/08 05:43:59;;;;;;;12.45;6.55;;;17.90;99.90;;;;;;5013239;28;20187;-80
2022/09/08 05:46:26;;;;;;;11.38;5.53;;;17.90;99.90;;;;;;5012947;28;20573;-80
2022/09/08 05:49:01;;;;;;;8.35;5.60;;;17.80;99.90;;;;;;5012904;28;20200;-80
2022/09/08 05:51:27;;;;;;;10.48;5.05;;;18.00;99.90;;;;;;5012933;28;20179;-79
2022/09/08 05:53:52;;;;;;;5.70;4.05;;;18.00;99.90;;;;;;5011315;28;20189;-81
2022/09/08 05:56:18;;;;;;;7.38;4.32;;;18.30;99.90;;;;;;5012467;28;20199;-80
2022/09/08 05:58:50;;;;;;;8.80;4.72;;;18.50;99.90;;;;;;5012457;28;20152;-81
2022/09/08 06:01:16;;;;;;;7.00;3.30;;;18.60;99.90;;;;;;5011370;28;20180;-80
2022/09/08 06:03:41;;;;;;;12.05;4.50;;;18.60;99.90;;;;;;5012742;28;20569;-80
2022/09/08 06:06:10;;;;;;;5.82;3.60;;;18.60;99.90;;;;;;5012477;28;20561;-80
2022/09/08 06:08:39;;;;;;;10.55;3.20;;;18.60;99.90;;;;;;5013608;28;20204;-80
2022/09/08 06:11:05;;;;;;;4.65;3.35;;;18.50;99.90;;;;;;5011311;28;20170;-80
2022/09/08 06:13:31;;;;;;;6.63;3.65;;;18.70;99.90;;;;;;5012339;28;20197;-80
2022/09/08 06:16:02;;;;;;;11.30;3.53;;;18.40;99.90;;;;;;5012482;28;20168;-79
2022/09/08 06:18:28;;;;;;;3.65;3.17;;;18.20;99.90;;;;;;5012137;28;20175;-80
2022/09/08 06:20:53;;;;;;;8.55;2.92;;;18.20;99.90;;;;;;5012109;28;20161;-79
2022/09/08 06:23:20;;;;;;;5.18;3.05;;;18.20;99.90;;;;;;5013257;28;20216;-79
2022/09/08 06:25:46;;;;;;;4.55;3.38;;;18.50;99.90;;;;;;5010911;28;20188;-79
2022/09/08 06:28:40;;;;;;;5.03;3.10;;;18.60;99.90;;;;;;5015410;28;20311;-82
2022/09/08 06:31:10;;;;;;;8.50;3.38;;;18.50;99.90;;;;;;5016365;28;20229;-82
2022/09/08 06:33:40;;;;;;;9.40;2.60;;;18.70;99.90;;;;;;5016129;28;20188;-81
2022/09/08 06:36:41;;;;;;;6.90;3.15;;;18.90;99.90;;;;;;5015571;28;20201;-82
2022/09/08 06:39:14;;;;;;;6.38;2.88;;;18.80;99.90;;;;;;5009452;28;20191;-80
2022/09/08 06:41:49;;;;;;;10.00;2.70;;;18.90;99.90;;;;;;5016515;28;20259;-80
2022/09/08 06:44:21;;;;;;;10.40;2.42;;;18.90;99.90;;;;;;5016754;28;20652;-79
2022/09/08 06:46:47;;;;;;;6.65;2.85;;;18.70;99.90;;;;;;5016498;28;20177;-79
2022/09/08 06:49:13;;;;;;;20.05;2.75;;;18.50;99.90;;;;;;5016196;28;20208;-83
2022/09/08 06:52:12;;;;;;;4.95;3.30;;;18.60;99.90;;;;;;5014546;28;20286;-82
2022/09/08 06:54:47;;;;;;;4.60;2.70;;;18.50;99.90;;;;;;5015621;28;20180;-81
2022/09/08 06:57:22;;;;;;;15.77;2.97;;;18.50;99.90;;;;;;5015395;28;20179;-82
2022/09/08 07:00:06;;;;;;;7.45;2.40;;;18.60;99.90;;;;;;5014263;28;20526;-81
2022/09/08 07:02:44;;;;;;;7.15;2.40;;;18.60;99.90;;;;;;5014353;28;20262;-81
2022/09/08 07:05:18;;;;;;;11.68;2.80;;;18.50;99.90;;;;;;5015582;28;20169;-81
2022/09/08 07:08:19;;;;;;;6.10;2.70;;;18.50;99.90;;;;;;5014453;28;20211;-83
2022/09/08 07:11:13;;;;;;;6.75;2.65;;;18.50;99.90;;;;;;5008686;28;20276;-80
2022/09/08 07:13:59;;;;;;;10.95;2.42;;;18.70;99.90;;;;;;4996346;28;20214;-83
2022/09/08 07:16:48;;;;;;;6.68;2.13;;;18.80;99.90;;;;;;5015473;28;20169;-81
2022/09/08 07:19:28;;;;;;;7.90;2.72;;;18.90;99.90;;;;;;5016359;28;20183;-77
2022/09/08 07:22:18;;;;;;;8.77;2.53;;;18.80;99.90;;;;;;5015894;28;20184;-80
2022/09/08 07:24:47;;;;;;;3.70;2.38;;;18.70;99.90;;;;;;5008152;28;20659;-80
2022/09/08 07:27:14;;;;;;;12.02;2.50;;;18.70;99.90;;;;;;5016076;28;20264;-80
2022/09/08 07:29:45;;;;;;;5.38;2.67;;;18.80;99.90;;;;;;5015316;28;20177;-80
2022/09/08 07:32:20;;;;;;;6.95;2.03;;;18.90;99.90;;;;;;5014630;28;20176;-83
2022/09/08 07:35:12;;;;;;;3.70;2.38;;;19.00;99.90;;;;;;5009522;28;20267;-89
2022/09/08 07:37:49;;;;;;;5.00;1.98;;;19.20;99.90;;;;;;5004318;28;20169;-89
2022/09/08 07:40:23;;;;;;;17.88;2.00;;;19.00;99.90;;;;;;4996019;28;20652;-86
2022/09/08 07:42:54;;;;;;;18.45;2.33;;;19.00;99.90;;;;;;4996283;28;20256;-84
2022/09/08 07:45:27;;;;;;;3.58;2.25;;;19.40;99.90;;;;;;4995214;28;20173;-78
2022/09/08 07:48:29;;;;;;;4.38;2.10;;;19.70;99.90;;;;;;4997092;28;20216;-78
2022/09/08 07:51:14;;;;;;;2.53;1.80;;;19.90;99.90;;;;;;4995456;28;20215;-78
2022/09/08 07:53:59;;;;;;;24.63;2.20;;;20.00;99.90;;;;;;4996256;28;20319;-83
2022/09/08 07:56:38;;;;;;;6.65;1.40;;;19.90;99.90;;;;;;5010553;28;20660;-84
2022/09/08 07:59:16;;;;;;;3.20;1.27;;;20.00;99.90;;;;;;5015326;28;20169;-78
2022/09/08 08:02:00;;;;;;;4.15;1.85;;;20.00;99.90;;;;;;5012504;28;20173;-78
2022/09/08 08:04:48;;;;;;;11.55;1.98;;;20.00;99.90;;;;;;4995665;28;20192;-92
2022/09/08 08:07:20;;;;;;;4.38;1.98;;;19.90;99.90;;;;;;5000608;28;20176;-78
2022/09/08 08:10:02;;;;;;;4.07;1.98;;;19.90;99.90;;;;;;5012020;28;20185;-79
2022/09/08 08:12:28;;;;;;;7.18;1.80;;;20.00;99.90;;;;;;5013148;28;20196;-89
2022/09/08 08:14:53;;;;;;;4.20;1.60;;;20.00;99.90;;;;;;4994719;28;20539;-78
2022/09/08 08:17:24;;;;;;;11.90;1.90;;;20.30;99.90;;;;;;4996409;28;20637;-78
2022/09/08 08:20:02;;;;;;;9.38;1.70;;;20.40;99.90;;;;;;5012481;28;20177;-80
2022/09/08 08:22:46;;;;;;;9.02;2.17;;;20.50;99.90;;;;;;5014212;28;20276;-79
2022/09/08 08:25:51;;;;;;;6.43;1.65;;;20.60;99.90;;;;;;5017090;28;20172;-80
2022/09/08 08:28:19;;;;;;;4.65;1.50;;;20.90;99.90;;;;;;4978462;28;20231;-79
2022/09/08 08:31:07;;;;;;;4.18;1.98;;;20.80;99.90;;;;;;5007698;28;20162;-82
2022/09/08 08:33:38;;;;;;;2.92;1.08;;;20.80;99.90;;;;;;5003119;28;20232;-82
2022/09/08 08:36:06;;;;;;;11.75;1.35;;;20.40;99.90;;;;;;4998648;28;20165;-82
2022/09/08 08:38:45;;;;;;;3.08;1.20;;;20.40;99.90;;;;;;4998078;28;20200;-85
2022/09/08 08:41:40;;;;;;;8.57;1.38;;;20.40;99.90;;;;;;5005613;28;20240;-84
2022/09/08 08:44:14;;;;;;;5.82;1.60;;;20.40;99.90;;;;;;5008591;28;20265;-84
2022/09/08 08:46:51;;;;;;;1.88;0.80;;;20.50;99.90;;;;;;5010994;28;20203;-84
2022/09/08 08:49:19;;;;;;;5.13;1.40;;;20.60;99.90;;;;;;5009048;28;20208;-84
2022/09/08 08:51:58;;;;;;;6.32;1.23;;;20.80;99.90;;;;;;5006803;28;20304;-84
2022/09/08 08:54:43;;;;;;;5.88;2.30;;;20.60;99.90;;;;;;5001763;28;20212;-84
2022/09/08 08:57:32;;;;;;;9.30;2.00;;;20.60;99.90;;;;;;5010447;28;20192;-85
2022/09/08 09:00:02;;;;;;;5.95;1.50;;;20.40;99.90;;;;;;5012822;28;20208;-84
2022/09/08 09:03:09;;;;;;;2.28;1.30;;;20.10;99.90;;;;;;5003012;28;20244;-82
2022/09/08 09:05:43;;;;;;;2.60;0.98;;;20.10;99.90;;;;;;4974590;28;20185;-84
2022/09/08 09:08:24;;;;;;;9.02;1.40;;;20.30;99.90;;;;;;5003179;28;20239;-84
2022/09/08 09:11:05;;;;;;;4.32;1.15;;;20.40;99.90;;;;;;5001692;28;20211;-87
2022/09/08 09:13:52;;;;;;;6.13;1.23;;;20.50;99.90;;;;;;5014029;28;20290;-84
2022/09/08 09:16:29;;;;;;;3.88;1.42;;;20.60;99.90;;;;;;5014206;28;20169;-83
2022/09/08 09:19:30;;;;;;;9.07;1.50;;;20.50;99.90;;;;;;5012644;28;20213;-84
2022/09/08 09:22:47;;;;;;;5.85;1.13;;;20.40;99.90;;;;;;5011993;28;20565;-81
2022/09/08 09:25:28;;;;;;;4.10;1.10;;;20.30;99.90;;;;;;4977439;28;20271;-81
2022/09/08 09:28:12;;;;;;;3.78;0.98;;;20.50;99.90;;;;;;5010422;28;20281;-82
2022/09/08 09:30:49;;;;;;;2.40;1.50;;;20.70;99.90;;;;;;5011363;28;20681;-82
2022/09/08 09:33:37;;;;;;;4.68;1.20;;;20.80;99.90;;;;;;5012768;28;20220;-81
2022/09/08 09:36:30;;;;;;;4.95;0.82;;;20.90;99.90;;;;;;5012707;28;20188;-82
2022/09/08 09:39:16;;;;;;;4.35;0.88;;;21.10;99.90;;;;;;5012762;28;20263;-82
2022/09/08 09:41:51;;;;;;;4.93;1.10;;;21.50;99.90;;;;;;5011495;28;20207;-82
2022/09/08 09:44:40;;;;;;;1.83;1.23;;;21.90;99.90;;;;;;5011339;28;20200;-81
2022/09/08 09:47:05;;;;;;;3.47;1.08;;;22.10;99.90;;;;;;5011411;28;20568;-81
2022/09/08 09:49:50;;;;;;;3.20;1.33;;;22.40;99.90;;;;;;5012180;28;20176;-81
2022/09/08 09:52:31;;;;;;;5.45;2.05;;;22.30;99.90;;;;;;5011444;28;20171;-82
2022/09/08 09:55:12;;;;;;;3.17;1.40;;;22.20;99.90;;;;;;5011361;28;20200;-82
2022/09/08 09:57:49;;;;;;;5.90;1.50;;;22.00;99.90;;;;;;5011263;28;20188;-82
2022/09/08 10:00:21;;;;;;;7.95;1.45;;;21.90;99.90;;;;;;5011338;28;20172;-81
2022/09/08 10:02:50;;;;;;;2.20;1.00;;;21.80;99.90;;;;;;5011311;28;20614;-81
2022/09/08 10:05:34;;;;;;;2.97;1.45;;;21.50;99.90;;;;;;5012559;28;20173;-81
2022/09/08 10:08:08;;;;;;;7.75;1.40;;;21.30;99.90;;;;;;5012206;28;20207;-81
2022/09/08 10:11:11;;;;;;;4.35;1.25;;;21.40;99.90;;;;;;5011406;28;20213;-82
2022/09/08 10:13:37;;;;;;;4.57;1.30;;;21.50;99.90;;;;;;5011232;28;20215;-81
2022/09/08 10:16:02;;;;;;;2.92;1.17;;;21.50;99.90;;;;;;5010960;28;20164;-83
2022/09/08 10:18:56;;;;;;;2.53;1.00;;;21.60;99.90;;;;;;5012599;28;20195;-82
2022/09/08 10:21:30;;;;;;;4.15;1.13;;;21.30;99.90;;;;;;5011060;28;20173;-82
2022/09/08 10:23:56;;;;;;;8.10;2.15;;;21.30;99.90;;;;;;5012483;28;20275;-82
2022/09/08 10:26:34;;;;;;;4.65;1.63;;;21.30;99.90;;;;;;5011176;28;20259;-82
2022/09/08 10:29:10;;;;;;;2.75;1.05;;;21.50;99.90;;;;;;5011146;28;20215;-82
2022/09/08 10:32:06;;;;;;;10.35;1.25;;;21.80;99.90;;;;;;5012576;28;20172;-82
2022/09/08 10:34:31;;;;;;;6.03;1.40;;;22.20;99.90;;;;;;5010683;28;20267;-82
2022/09/08 10:37:17;;;;;;;2.67;1.50;;;22.40;99.90;;;;;;5011076;28;20263;-82
2022/09/08 10:40:05;;;;;;;6.90;1.48;;;22.30;99.90;;;;;;5012178;28;20263;-83
2022/09/08 10:42:44;;;;;;;3.63;1.08;;;22.00;99.90;;;;;;5011907;28;20191;-82
2022/09/08 10:45:49;;;;;;;3.78;1.83;;;22.00;99.90;;;;;;5010578;28;20179;-82
2022/09/08 10:48:29;;;;;;;6.68;1.27;;;22.00;99.90;;;;;;4956092;28;20239;-82
2022/09/08 10:51:22;;;;;;;5.57;1.35;;;22.20;99.90;;;;;;5004537;28;20621;-82
2022/09/08 10:54:14;;;;;;;10.20;1.73;;;22.10;99.90;;;;;;5011474;28;20192;-82
2022/09/08 10:56:42;;;;;;;11.23;1.73;;;22.10;99.90;;;;;;5012248;28;20187;-82
2022/09/08 10:59:42;;;;;;;4.03;1.15;;;21.90;99.90;;;;;;5010397;28;20176;-82
2022/09/08 11:02:26;;;;;;;7.28;1.95;;;21.90;99.90;;;;;;5010516;28;20172;-82
2022/09/08 11:05:25;;;;;;;3.08;1.20;;;22.10;99.90;;;;;;5011840;28;20173;-82
2022/09/08 11:08:00;;;;;;;14.77;1.20;;;22.10;99.90;;;;;;5010653;28;20269;-82
2022/09/08 11:10:56;;;;;;;6.35;1.35;;;22.00;99.90;;;;;;5012019;28;20200;-87
2022/09/08 11:13:29;;;;;;;6.35;1.05;;;22.20;99.90;;;;;;5011161;28;20188;-82
2022/09/08 11:16:13;;;;;;;4.05;1.08;;;22.30;99.90;;;;;;5015688;28;20192;-82
2022/09/08 11:19:03;;;;;;;3.58;0.75;;;22.40;99.90;;;;;;5017470;28;20621;-86
2022/09/08 11:21:31;;;;;;;9.77;1.17;;;22.50;99.90;;;;;;5014981;28;20586;-84
2022/09/08 11:24:20;;;;;;;3.95;1.25;;;22.70;99.90;;;;;;5014872;28;20809;-83
2022/09/08 11:26:57;;;;;;;4.57;1.20;;;22.80;99.90;;;;;;5015854;28;20200;-82
2022/09/08 11:29:33;;;;;;;4.63;0.98;;;22.80;99.90;;;;;;5015437;28;20208;-83
2022/09/08 11:32:21;;;;;;;4.18;1.40;;;22.80;99.90;;;;;;5013536;28;20262;-82
2022/09/08 11:35:28;;;;;;;7.65;1.48;;;23.00;99.90;;;;;;5014254;28;20192;-83
2022/09/08 11:38:22;;;;;;;10.95;1.10;;;23.30;99.90;;;;;;4981138;28;20180;-83
2022/09/08 11:41:19;;;;;;;4.15;1.65;;;23.40;99.90;;;;;;5013366;28;20215;-83
2022/09/08 11:44:19;;;;;;;3.17;1.17;;;23.20;99.90;;;;;;5013900;28;20199;-84
2022/09/08 11:47:16;;;;;;;8.68;1.38;;;23.00;99.90;;;;;;5014144;28;20650;-82
2022/09/08 11:50:05;;;;;;;4.82;1.48;;;23.00;99.90;;;;;;5013344;28;20634;-82
2022/09/08 11:52:57;;;;;;;9.18;1.50;;;23.10;99.90;;;;;;5009298;28;20717;-83
2022/09/08 11:55:39;;;;;;;4.50;1.08;;;23.30;99.90;;;;;;5014917;28;20183;-83
2022/09/08 11:58:18;;;;;;;3.75;1.00;;;23.10;99.90;;;;;;5013781;28;20176;-83
2022/09/08 12:01:13;;;;;;;4.65;0.98;;;23.20;99.90;;;;;;5013930;28;20535;-82
2022/09/08 12:03:50;;;;;;;3.67;1.10;;;23.20;99.90;;;;;;5013151;28;20196;-84
2022/09/08 12:06:30;;;;;;;2.03;0.80;;;23.20;99.90;;;;;;5013350;28;20211;-82
2022/09/08 12:09:27;;;;;;;4.10;1.05;;;23.20;99.90;;;;;;5013143;28;20207;-83
2022/09/08 12:12:29;;;;;;;3.20;1.30;;;23.60;99.90;;;;;;5015081;28;20182;-88
2022/09/08 12:14:55;;;;;;;3.85;1.20;;;23.70;99.90;;;;;;5017669;28;20614;-87
2022/09/08 12:17:44;;;;;;;1.85;1.63;;;23.60;99.90;;;;;;5016152;28;20192;-88
2022/09/08 12:20:34;;;;;;;8.13;1.33;;;23.40;99.90;;;;;;5015056;28;20168;-86
2022/09/08 12:23:22;;;;;;;2.80;1.65;;;23.30;99.90;;;;;;5015191;28;20208;-87
2022/09/08 12:26:06;;;;;;;3.88;1.80;;;22.50;99.90;;;;;;5014707;28;20183;-88
2022/09/08 12:28:37;;;;;;;11.15;2.08;;;22.50;99.90;;;;;;5014854;28;20691;-88
2022/09/08 12:31:20;;;;;;;5.20;1.30;;;22.60;99.90;;;;;;5015527;28;20173;-88
2022/09/08 12:34:24;;;;;;;6.88;1.60;;;22.70;99.90;;;;;;5015488;28;20238;-88
2022/09/08 12:36:51;;;;;;;7.70;1.75;;;22.70;99.90;;;;;;4993095;28;20187;-88
2022/09/08 12:39:29;;;;;;;7.20;1.52;;;22.70;99.90;;;;;;5015195;28;20203;-89
2022/09/08 12:51:49;;;;;;;8.68;1.48;;;22.00;99.90;;;;;;5943399;23;20227;-84
2022/09/08 12:54:53;;;;;;;6.13;1.63;;;21.80;99.90;;;;;;4997211;28;20232;-87
2022/09/08 12:57:36;;;;;;;4.93;2.20;;;21.70;99.90;;;;;;4995113;28;20197;-86
2022/09/08 13:00:12;;;;;;;6.03;1.55;;;21.70;99.90;;;;;;4995196;28;20223;-86
2022/09/08 13:02:57;;;;;;;6.78;2.05;;;21.80;99.90;;;;;;4995220;28;20223;-88
2022/09/08 13:06:13;;;;;;;7.28;1.85;;;21.70;99.90;;;;;;4996984;28;20180;-87
2022/09/08 13:09:01;;;;;;;8.90;1.80;;;21.40;99.90;;;;;;5037173;28;20188;-86
2022/09/08 13:25:01;;;;;;;2.85;1.38;;;21.70;99.90;;;;;;5032544;28;20207;-86
2022/09/08 13:27:58;;;;;;;2.38;1.10;;;21.90;99.90;;;;;;5026377;28;20251;-88
2022/09/08 13:30:33;;;;;;;8.15;1.42;;;22.30;99.90;;;;;;5026076;28;20195;-88
2022/09/08 13:33:16;;;;;;;3.28;1.00;;;22.60;99.90;;;;;;5035608;28;20210;-87
2022/09/08 13:36:12;;;;;;;5.07;1.88;;;23.00;99.90;;;;;;5034056;28;20270;-88
2022/09/08 13:38:57;;;;;;;5.53;1.15;;;23.30;99.90;;;;;;5033917;28;20652;-86
2022/09/08 13:41:46;;;;;;;1.70;1.27;;;23.30;99.90;;;;;;5033852;28;20583;-86
2022/09/08 13:44:46;;;;;;;9.98;1.20;;;23.00;99.90;;;;;;5033485;28;20274;-86
2022/09/08 13:47:29;;;;;;;8.88;1.52;;;22.90;99.90;;;;;;5033167;28;20267;-87
2022/09/08 13:50:01;;;;;;;5.78;1.15;;;22.80;99.90;;;;;;5033015;28;20291;-87
2022/09/08 13:52:40;;;;;;;9.98;1.40;;;22.60;99.90;;;;;;5032629;28;20238;-87
2022/09/08 13:55:31;;;;;;;12.65;1.58;;;22.50;99.90;;;;;;5032532;28;20657;-86
2022/09/08 13:58:03;;;;;;;8.68;1.83;;;22.40;99.90;;;;;;5032649;28;20584;-86
2022/09/08 14:00:28;;;;;;;6.38;1.70;;;22.10;99.90;;;;;;5031644;28;20190;-80